Time;durP1;ratioP1;P1;durP2;ratioP2;P2;SDS_P1;SDS_P2;PMS_P1;PMS_P2;Temp;Humidity;BMP_temperature;BMP_pressure;BME280_temperature;BME280_humidity;BME280_pressure;Samples;Min_cycle;Max_cycle;Signal;HPM_P1;HPM_P2
2022/03/11 00:01:42;;;;;;;14.40;7.30;;;;;;;8.06;42.62;101795.97;5095698;28;20020;-67
2022/03/11 00:04:08;;;;;;;11.50;6.80;;;;;;;8.05;42.84;101797.72;5095743;28;20030;-67
2022/03/11 00:06:33;;;;;;;13.98;6.60;;;;;;;7.87;43.05;101797.69;5094264;28;20024;-68
2022/03/11 00:08:58;;;;;;;16.85;6.97;;;;;;;7.82;43.55;101792.16;5094628;28;20067;-68
2022/03/11 00:11:23;;;;;;;13.00;7.22;;;;;;;7.88;43.21;101789.03;5095170;28;20028;-67
2022/03/11 00:13:49;;;;;;;15.75;8.10;;;;;;;7.73;43.47;101797.38;5095618;28;20099;-68
2022/03/11 00:16:14;;;;;;;12.95;7.10;;;;;;;7.53;44.77;101787.16;5095593;28;20394;-67
2022/03/11 00:18:39;;;;;;;12.88;7.15;;;;;;;7.44;44.56;101791.41;5077860;28;20173;-67
2022/03/11 00:21:05;;;;;;;13.18;7.20;;;;;;;7.26;44.91;101784.56;5077536;28;20114;-68
2022/03/11 00:23:31;;;;;;;14.32;8.07;;;;;;;7.11;46.17;101786.78;5095459;28;20024;-67
2022/03/11 00:25:57;;;;;;;13.43;7.00;;;;;;;7.00;46.18;101792.88;5095353;28;20031;-67
2022/03/11 00:28:22;;;;;;;12.93;7.47;;;;;;;6.88;46.28;101789.66;5076667;28;20020;-67
2022/03/11 00:30:47;;;;;;;19.27;8.20;;;;;;;6.89;46.78;101791.28;5094914;28;20016;-67
2022/03/11 00:33:12;;;;;;;12.52;7.07;;;;;;;6.77;46.82;101779.53;5095496;28;20031;-67
2022/03/11 00:35:38;;;;;;;13.95;7.68;;;;;;;6.51;47.98;101779.28;5094854;28;20459;-67
2022/03/11 00:38:03;;;;;;;14.73;7.97;;;;;;;6.38;48.16;101779.53;5095082;28;20425;-67
2022/03/11 00:40:29;;;;;;;14.23;7.63;;;;;;;6.47;47.92;101776.19;5095011;28;20107;-68
2022/03/11 00:42:54;;;;;;;16.88;7.43;;;;;;;6.37;48.75;101777.94;5094982;28;20024;-68
2022/03/11 00:45:19;;;;;;;15.35;8.15;;;;;;;6.08;50.33;101778.72;5095013;28;20081;-68
2022/03/11 00:47:45;;;;;;;17.45;7.72;;;;;;;6.03;49.66;101778.28;5094897;28;20474;-68
2022/03/11 00:50:11;;;;;;;13.13;7.55;;;;;;;6.19;48.81;101777.00;5076646;28;20048;-67
2022/03/11 00:52:37;;;;;;;15.00;7.72;;;;;;;6.14;48.59;101772.25;5094828;28;20024;-68
2022/03/11 00:55:03;;;;;;;16.38;7.80;;;;;;;6.07;50.21;101768.56;5076602;28;20028;-68
2022/03/11 00:57:29;;;;;;;16.13;8.10;;;;;;;6.02;49.76;101770.75;5076482;28;20386;-69
2022/03/11 00:59:54;;;;;;;15.90;7.93;;;;;;;6.05;49.35;101776.41;5076516;28;20028;-68
2022/03/11 01:02:19;;;;;;;15.50;7.78;;;;;;;6.09;50.12;101766.69;5094606;28;20028;-68
2022/03/11 01:04:47;;;;;;;16.23;8.20;;;;;;;5.94;50.19;101773.16;5094622;28;20489;-68
2022/03/11 01:07:12;;;;;;;16.90;8.27;;;;;;;5.84;50.51;101766.22;5094582;28;20493;-68
2022/03/11 01:09:37;;;;;;;17.67;8.45;;;;;;;5.86;49.95;101766.06;5094446;28;20110;-68
2022/03/11 01:12:03;;;;;;;16.27;8.05;;;;;;;5.97;49.96;101762.63;5076350;28;20024;-67
2022/03/11 01:14:28;;;;;;;14.35;7.90;;;;;;;6.14;49.53;101756.03;5094453;28;20435;-68
2022/03/11 01:16:54;;;;;;;14.38;7.93;;;;;;;5.88;51.43;101749.63;5094317;28;20443;-68
2022/03/11 01:19:19;;;;;;;15.93;8.27;;;;;;;5.84;50.15;101748.28;5076157;28;20486;-68
2022/03/11 01:21:44;;;;;;;16.20;7.60;;;;;;;5.89;50.26;101751.22;5075934;28;20028;-68
2022/03/11 01:24:10;;;;;;;15.82;8.05;;;;;;;5.82;50.61;101749.34;5094204;28;20051;-67
2022/03/11 01:26:36;;;;;;;15.20;8.23;;;;;;;5.88;50.22;101748.81;5094190;28;20394;-67
2022/03/11 01:29:01;;;;;;;17.30;8.07;;;;;;;5.91;49.98;101742.59;5075984;28;20496;-68
2022/03/11 01:31:27;;;;;;;18.23;8.23;;;;;;;5.80;50.07;101743.53;5094103;28;20095;-68
2022/03/11 01:33:52;;;;;;;13.43;8.07;;;;;;;5.80;50.92;101739.19;5093951;28;20051;-66
2022/03/11 01:36:17;;;;;;;14.65;7.55;;;;;;;5.82;50.03;101747.59;5093957;28;20027;-67
2022/03/11 01:38:43;;;;;;;15.25;8.43;;;;;;;5.83;50.21;101735.56;5093916;28;20024;-67
2022/03/11 01:41:09;;;;;;;16.00;7.82;;;;;;;5.81;49.59;101727.19;5075084;28;20030;-67
2022/03/11 01:43:53;;;;;;;16.73;8.40;;;;;;;5.91;49.48;101722.09;5093570;28;20024;-67
2022/03/11 01:46:18;;;;;;;;;;;;;;;5.72;50.70;101717.72;5094219;28;20032;-67
2022/03/11 01:48:43;;;;;;;14.73;7.90;;;;;;;5.62;50.57;101713.38;5093555;28;19970;-66
2022/03/11 01:51:09;;;;;;;14.88;8.02;;;;;;;5.65;50.57;101712.31;5075489;28;20016;-66
2022/03/11 01:53:35;;;;;;;16.27;8.00;;;;;;;5.65;49.79;101707.19;5093633;28;20027;-68
2022/03/11 01:56:00;;;;;;;18.92;8.23;;;;;;;5.66;49.85;101707.03;5093696;28;20084;-67
2022/03/11 01:58:27;;;;;;;15.25;7.53;;;;;;;5.69;49.71;101700.84;5075335;28;20470;-68
2022/03/11 02:00:53;;;;;;;14.45;7.65;;;;;;;5.61;49.83;101696.38;5093569;28;20020;-67
2022/03/11 02:03:18;;;;;;;17.05;8.52;;;;;;;5.58;49.89;101700.94;5093520;28;20479;-67
2022/03/11 02:05:43;;;;;;;19.30;8.20;;;;;;;5.55;50.27;101690.94;5093449;28;20024;-67
2022/03/11 02:08:09;;;;;;;15.20;8.05;;;;;;;5.40;50.58;101693.88;5075435;28;20028;-67
2022/03/11 02:10:34;;;;;;;17.50;8.35;;;;;;;5.44;50.43;101691.88;5093333;28;20020;-68
2022/03/11 02:13:05;;;;;;;18.35;8.20;;;;;;;5.49;50.03;101683.78;5075276;28;20074;-67
2022/03/11 02:15:30;;;;;;;19.83;8.55;;;;;;;5.39;50.27;101676.09;5093373;28;20133;-68
2022/03/11 02:17:55;;;;;;;13.35;7.90;;;;;;;5.38;50.47;101672.72;5075199;28;20016;-67
2022/03/11 02:20:21;;;;;;;14.40;8.02;;;;;;;5.44;49.67;101671.38;5093107;28;20023;-68
2022/03/11 02:22:50;;;;;;;16.20;8.20;;;;;;;5.42;49.34;101668.94;5075120;28;20118;-68
2022/03/11 02:25:15;;;;;;;14.88;7.85;;;;;;;5.38;50.17;101665.03;5093512;28;20463;-68
2022/03/11 02:27:42;;;;;;;16.58;7.80;;;;;;;5.39;50.18;101666.63;5074970;28;20032;-68
2022/03/11 02:30:20;;;;;;;22.45;8.57;;;;;;;5.38;50.34;101657.34;5075034;28;20107;-68
2022/03/11 02:32:45;;;;;;;14.57;8.10;;;;;;;5.35;50.01;101657.59;5075044;28;20031;-68
2022/03/11 02:35:11;;;;;;;17.98;8.20;;;;;;;5.27;49.77;101634.38;5075041;28;20103;-67
2022/03/11 02:37:37;;;;;;;16.13;8.10;;;;;;;5.41;50.06;101653.69;5093060;28;20023;-66
2022/03/11 02:40:04;;;;;;;17.00;8.18;;;;;;;5.36;50.13;101650.72;5092978;28;20530;-67
2022/03/11 02:42:30;;;;;;;18.48;8.75;;;;;;;5.38;50.31;101651.38;5092965;28;20383;-67
2022/03/11 02:44:58;;;;;;;16.17;8.43;;;;;;;5.38;50.08;101641.13;5093019;28;20035;-67
2022/03/11 02:47:23;;;;;;;14.88;7.93;;;;;;;5.47;50.13;101644.66;5093029;28;20032;-67
2022/03/11 02:49:49;;;;;;;20.92;8.82;;;;;;;5.43;50.32;101644.91;5074700;28;20397;-68
2022/03/11 02:52:14;;;;;;;18.40;8.05;;;;;;;5.51;49.85;101643.47;5075098;28;20020;-67
2022/03/11 02:54:39;;;;;;;17.23;9.00;;;;;;;5.52;49.87;101645.06;5078700;28;20020;-68
2022/03/11 02:57:05;;;;;;;15.60;8.65;;;;;;;5.52;50.18;101645.88;5078795;28;20110;-68
2022/03/11 02:59:30;;;;;;;17.65;9.07;;;;;;;5.54;49.36;101638.88;5097002;28;20020;-67
2022/03/11 03:01:55;;;;;;;18.50;9.65;;;;;;;5.33;50.35;101641.53;5096760;28;20028;-68
2022/03/11 03:04:20;;;;;;;17.23;8.73;;;;;;;5.48;49.73;101638.59;5097102;28;20058;-68
2022/03/11 03:06:46;;;;;;;18.75;8.38;;;;;;;5.38;50.00;101636.00;5078828;28;20031;-67
2022/03/11 03:09:11;;;;;;;19.17;8.77;;;;;;;5.41;49.91;101633.19;5078632;28;20417;-68
2022/03/11 03:11:36;;;;;;;19.50;9.02;;;;;;;5.42;49.68;101629.69;5078542;28;20055;-68
2022/03/11 03:14:02;;;;;;;17.23;8.88;;;;;;;5.40;49.80;101622.09;5078742;28;20040;-68
2022/03/11 03:16:28;;;;;;;17.08;9.70;;;;;;;5.38;50.60;101629.13;5096650;28;20028;-68
2022/03/11 03:18:53;;;;;;;22.33;9.20;;;;;;;5.11;50.25;101598.19;5096661;28;20023;-68
2022/03/11 03:21:19;;;;;;;16.90;8.60;;;;;;;5.20;50.93;101620.44;5078320;28;20425;-68
2022/03/11 03:23:44;;;;;;;17.25;9.05;;;;;;;5.31;50.54;101627.22;5096515;28;20028;-68
2022/03/11 03:26:09;;;;;;;14.90;8.85;;;;;;;5.26;50.42;101624.25;5096482;28;20115;-68
2022/03/11 03:28:35;;;;;;;17.65;8.93;;;;;;;5.37;50.37;101622.38;5096514;28;20459;-68
2022/03/11 03:31:01;;;;;;;19.52;9.40;;;;;;;5.26;51.77;101611.44;5078144;28;20046;-68
2022/03/11 03:33:26;;;;;;;20.05;9.07;;;;;;;5.19;50.78;101616.28;5077201;28;20110;-67
2022/03/11 03:35:51;;;;;;;18.80;9.27;;;;;;;5.29;50.89;101614.53;5095218;28;20054;-67
2022/03/11 03:38:17;;;;;;;14.95;8.70;;;;;;;5.18;50.83;101617.22;5077297;28;20503;-69
2022/03/11 03:40:42;;;;;;;16.83;8.65;;;;;;;5.22;50.73;101622.88;5077787;28;20028;-67
2022/03/11 03:43:08;;;;;;;19.10;9.23;;;;;;;5.06;51.53;101619.06;5077987;28;20364;-67
2022/03/11 03:45:33;;;;;;;16.40;9.25;;;;;;;5.23;50.43;101614.25;5077945;28;20130;-68
2022/03/11 03:48:01;;;;;;;19.48;9.27;;;;;;;5.18;51.35;101612.91;5095889;28;20035;-67
2022/03/11 03:50:28;;;;;;;16.92;9.32;;;;;;;5.19;50.90;101618.84;5095949;28;20030;-67
2022/03/11 03:52:53;;;;;;;17.40;9.02;;;;;;;5.14;51.23;101615.84;5096019;28;20389;-67
2022/03/11 03:55:19;;;;;;;16.95;9.40;;;;;;;4.89;52.45;101611.97;5095918;28;20023;-68
2022/03/11 03:57:44;;;;;;;17.63;8.93;;;;;;;4.93;52.04;101611.59;5095827;28;20027;-69
2022/03/11 04:00:10;;;;;;;19.92;9.07;;;;;;;4.83;52.84;101605.63;5095797;28;20046;-68
2022/03/11 04:02:37;;;;;;;15.38;8.52;;;;;;;4.86;53.29;101602.00;5095725;28;20376;-67
2022/03/11 04:05:04;;;;;;;21.38;8.98;;;;;;;4.78;53.44;101605.22;5076709;28;20024;-68
2022/03/11 04:07:29;;;;;;;19.55;9.70;;;;;;;4.66;53.35;101598.53;5077518;28;20632;-67
2022/03/11 04:09:54;;;;;;;15.45;8.82;;;;;;;4.58;53.53;101598.41;5077566;28;20115;-68
2022/03/11 04:12:20;;;;;;;16.63;9.27;;;;;;;4.63;53.28;101597.06;5095577;28;20356;-68
2022/03/11 04:14:45;;;;;;;15.68;8.70;;;;;;;4.67;52.94;101597.63;5077459;28;20059;-68
2022/03/11 04:17:10;;;;;;;15.82;9.18;;;;;;;4.65;53.04;101589.25;5095474;28;20436;-67
2022/03/11 04:19:36;;;;;;;17.73;8.98;;;;;;;4.58;53.34;101599.19;5095404;28;20126;-67
2022/03/11 04:22:01;;;;;;;17.02;8.93;;;;;;;4.60;52.86;101589.63;5095399;28;20103;-68
2022/03/11 04:24:26;;;;;;;18.77;9.10;;;;;;;4.56;53.26;101592.59;5077166;28;20032;-67
2022/03/11 04:26:52;;;;;;;17.67;9.13;;;;;;;4.56;52.98;101590.84;5077155;28;20429;-68
2022/03/11 04:29:18;;;;;;;16.92;9.30;;;;;;;4.50;53.16;101592.16;5095192;28;20024;-70
2022/03/11 04:31:44;;;;;;;17.55;8.95;;;;;;;4.63;52.94;101583.44;5095267;28;20379;-68
2022/03/11 04:34:09;;;;;;;18.75;8.55;;;;;;;4.68;52.77;101583.88;5076988;28;20020;-68
2022/03/11 04:36:38;;;;;;;22.70;9.13;;;;;;;4.61;52.78;101575.91;5076939;28;20035;-67
2022/03/11 04:39:05;;;;;;;14.95;9.10;;;;;;;4.65;52.64;101579.81;5076935;28;20038;-66
2022/03/11 04:41:31;;;;;;;17.48;9.20;;;;;;;4.57;53.33;101581.41;5076832;28;20035;-66
2022/03/11 04:43:56;;;;;;;16.30;8.25;;;;;;;4.51;53.62;101570.72;5094986;28;20036;-67
2022/03/11 04:46:21;;;;;;;15.48;9.07;;;;;;;4.54;53.61;101569.66;5095314;28;20020;-67
2022/03/11 04:48:47;;;;;;;18.20;8.93;;;;;;;4.56;52.90;101572.09;5076598;28;20575;-67
2022/03/11 04:51:16;;;;;;;16.15;8.57;;;;;;;4.59;53.13;101572.66;5076660;28;20027;-67
2022/03/11 04:53:41;;;;;;;15.85;8.73;;;;;;;4.36;53.21;101559.22;5094802;28;20672;-67
2022/03/11 04:56:07;;;;;;;19.58;9.07;;;;;;;4.60;53.46;101576.00;5094783;28;20134;-67
2022/03/11 04:58:32;;;;;;;18.13;9.25;;;;;;;4.42;53.77;101573.25;5094863;28;20077;-67
2022/03/11 05:00:57;;;;;;;16.48;8.30;;;;;;;4.47;53.22;101576.25;5094610;28;20160;-67
2022/03/11 05:03:23;;;;;;;16.17;8.70;;;;;;;4.50;53.13;101570.88;5094624;28;20031;-67
2022/03/11 05:05:48;;;;;;;18.33;8.73;;;;;;;4.60;53.02;101574.25;5094592;28;20593;-67
2022/03/11 05:08:13;;;;;;;15.38;8.88;;;;;;;4.59;53.25;101570.09;5076361;28;20024;-68
2022/03/11 05:10:39;;;;;;;14.48;8.63;;;;;;;4.67;52.80;101561.78;5094469;28;20101;-67
2022/03/11 05:13:04;;;;;;;15.02;8.35;;;;;;;4.70;52.83;101562.31;5094375;28;20509;-67
2022/03/11 05:15:29;;;;;;;15.95;8.63;;;;;;;4.78;51.95;101558.31;5094354;28;20103;-67
2022/03/11 05:17:55;;;;;;;14.82;8.55;;;;;;;4.70;53.01;101553.84;5076222;28;20024;-67
2022/03/11 05:20:21;;;;;;;17.55;8.57;;;;;;;4.75;52.20;101554.25;5076059;28;20111;-67
2022/03/11 05:22:46;;;;;;;17.50;8.77;;;;;;;4.91;52.03;101552.00;5094178;28;20019;-67
2022/03/11 05:25:12;;;;;;;12.75;7.43;;;;;;;4.84;52.07;101548.34;5076103;28;20502;-67
2022/03/11 05:27:37;;;;;;;15.82;8.38;;;;;;;4.97;51.85;101558.34;5094102;28;20028;-68
2022/03/11 05:30:05;;;;;;;14.15;8.00;;;;;;;5.00;51.69;101547.03;5094060;28;20035;-67
2022/03/11 05:32:30;;;;;;;14.73;8.65;;;;;;;5.04;51.65;101546.66;5094035;28;20024;-67
2022/03/11 05:34:56;;;;;;;14.02;7.95;;;;;;;5.04;52.04;101554.34;5075830;28;20060;-66
2022/03/11 05:37:21;;;;;;;17.17;8.30;;;;;;;5.15;51.10;101543.97;5075685;28;20031;-67
2022/03/11 05:39:46;;;;;;;18.08;8.32;;;;;;;5.05;52.04;101550.03;5075744;28;20034;-68
2022/03/11 05:42:11;;;;;;;13.15;7.88;;;;;;;5.15;51.07;101546.56;5093782;28;20024;-68
2022/03/11 05:44:37;;;;;;;15.02;8.13;;;;;;;5.14;51.55;101547.47;5075650;28;20032;-68
2022/03/11 05:47:03;;;;;;;17.92;7.90;;;;;;;5.00;51.60;101523.97;5093724;28;20024;-67
2022/03/11 05:49:28;;;;;;;15.27;8.13;;;;;;;5.18;51.36;101530.09;5075197;28;20051;-67
2022/03/11 05:51:54;;;;;;;14.18;7.53;;;;;;;5.25;51.32;101536.28;5075596;28;20016;-67
2022/03/11 05:54:19;;;;;;;14.50;7.78;;;;;;;5.17;51.27;101531.84;5093622;28;20031;-67
2022/03/11 05:56:44;;;;;;;17.58;8.10;;;;;;;5.29;50.81;101535.06;5093428;28;20024;-67
2022/03/11 05:59:09;;;;;;;19.73;8.63;;;;;;;5.31;50.71;101532.41;5075151;28;20028;-68
2022/03/11 06:01:36;;;;;;;15.20;8.02;;;;;;;5.34;50.88;101527.00;5075745;28;20088;-67
2022/03/11 06:04:04;;;;;;;15.98;8.25;;;;;;;5.26;51.95;101519.16;5076069;28;20024;-68
2022/03/11 06:06:30;;;;;;;13.80;7.80;;;;;;;5.29;51.43;101524.81;5076353;28;20024;-68
2022/03/11 06:08:56;;;;;;;17.65;8.45;;;;;;;5.35;51.18;101529.44;5075293;28;20118;-69
2022/03/11 06:11:22;;;;;;;15.18;8.00;;;;;;;5.30;51.57;101521.34;5093544;28;20046;-68
2022/03/11 06:13:47;;;;;;;15.48;8.55;;;;;;;5.37;51.21;101530.09;5075205;28;20016;-68
2022/03/11 06:16:13;;;;;;;16.25;9.02;;;;;;;5.28;51.47;101519.84;5093258;28;20047;-67
2022/03/11 06:18:38;;;;;;;18.52;8.65;;;;;;;5.42;50.64;101522.81;5093238;28;20020;-67
2022/03/11 06:21:03;;;;;;;17.48;8.27;;;;;;;5.38;51.63;101520.66;5075104;28;20062;-68
2022/03/11 06:23:30;;;;;;;12.88;7.00;;;;;;;5.37;51.61;101522.41;5093282;28;20107;-67
2022/03/11 06:25:55;;;;;;;15.45;8.50;;;;;;;5.43;51.40;101521.88;5075079;28;20382;-68
2022/03/11 06:28:21;;;;;;;16.30;8.75;;;;;;;5.41;51.19;101521.22;5074731;28;20020;-67
2022/03/11 06:30:47;;;;;;;17.02;8.45;;;;;;;5.55;51.24;101516.59;5075424;28;20016;-67
2022/03/11 06:33:13;;;;;;;15.88;7.85;;;;;;;5.58;50.87;101526.59;5093014;28;20089;-68
2022/03/11 06:35:38;;;;;;;18.02;8.30;;;;;;;5.60;50.85;101527.25;5093049;28;20103;-67
2022/03/11 06:38:04;;;;;;;16.27;8.27;;;;;;;5.61;51.25;101522.03;5075024;28;20123;-69
2022/03/11 06:40:29;;;;;;;14.82;7.57;;;;;;;5.58;51.60;101524.03;5074813;28;20025;-67
2022/03/11 06:42:56;;;;;;;23.42;8.63;;;;;;;5.60;52.05;101524.69;5093065;28;20425;-68
2022/03/11 06:45:22;;;;;;;15.55;8.23;;;;;;;5.69;50.74;101526.44;5074821;28;20082;-68
2022/03/11 06:47:48;;;;;;;15.27;7.70;;;;;;;5.70;50.64;101525.53;5074765;28;20466;-68
2022/03/11 06:50:17;;;;;;;18.15;8.25;;;;;;;5.75;51.03;101538.72;5074860;28;20024;-68
2022/03/11 06:52:42;;;;;;;16.40;8.48;;;;;;;5.78;51.02;101548.72;5092960;28;20140;-68
2022/03/11 06:55:09;;;;;;;14.98;8.10;;;;;;;5.77;50.93;101534.28;5092929;28;20123;-68
2022/03/11 06:57:34;;;;;;;21.38;8.60;;;;;;;5.86;50.83;101530.88;5074611;28;20062;-68
2022/03/11 07:00:00;;;;;;;16.63;8.43;;;;;;;5.85;50.31;101515.63;5092841;28;20055;-68
2022/03/11 07:02:26;;;;;;;16.75;8.20;;;;;;;5.96;50.69;101527.53;5092890;28;20027;-68
2022/03/11 07:04:51;;;;;;;17.48;8.48;;;;;;;5.96;50.56;101525.78;5092848;28;20032;-68
2022/03/11 07:07:17;;;;;;;18.48;8.50;;;;;;;5.97;50.36;101526.59;5092692;28;20149;-67
2022/03/11 07:09:42;;;;;;;16.70;8.40;;;;;;;6.04;49.90;101517.38;5074590;28;20024;-68
2022/03/11 07:12:08;;;;;;;17.67;8.20;;;;;;;6.08;49.86;101508.47;5074533;28;20020;-68
2022/03/11 07:14:38;;;;;;;15.45;8.50;;;;;;;6.08;50.41;101508.47;5092580;28;20032;-68
2022/03/11 07:17:04;;;;;;;18.17;8.68;;;;;;;6.21;49.76;101508.94;5074742;28;20020;-68
2022/03/11 07:19:30;;;;;;;12.45;7.13;;;;;;;6.27;49.73;101515.28;5074284;28;20056;-68
2022/03/11 07:21:58;;;;;;;14.73;8.57;;;;;;;6.17;49.50;101512.75;5074235;28;20419;-68
2022/03/11 07:24:24;;;;;;;18.00;8.20;;;;;;;6.29;49.43;101510.81;5091345;28;20031;-70
2022/03/11 07:26:50;;;;;;;18.30;8.48;;;;;;;6.38;49.36;101519.44;5090476;28;20028;-69
2022/03/11 07:29:15;;;;;;;17.75;9.07;;;;;;;6.33;49.72;101510.41;5089290;28;20032;-69
2022/03/11 07:31:40;;;;;;;13.65;8.30;;;;;;;6.57;48.97;101511.66;5073436;28;20043;-68
2022/03/11 07:34:06;;;;;;;22.80;8.93;;;;;;;6.64;49.17;101520.38;5090824;28;20024;-68
2022/03/11 07:36:34;;;;;;;14.48;8.50;;;;;;;6.60;48.98;101513.13;5090306;28;20046;-68
2022/03/11 07:39:02;;;;;;;15.18;8.20;;;;;;;6.63;49.19;101513.66;5071962;28;20047;-69
2022/03/11 07:41:29;;;;;;;17.83;8.63;;;;;;;6.64;48.64;101483.63;5093868;28;20424;-69
2022/03/11 07:43:55;;;;;;;20.90;9.77;;;;;;;9.60;42.16;101508.22;5074544;28;20050;-69
2022/03/11 07:46:23;;;;;;;24.95;8.88;;;;;;;12.27;37.01;101504.38;5091359;28;20225;-69
2022/03/11 07:48:49;;;;;;;18.08;9.35;;;;;;;12.67;35.33;101494.47;5073430;28;20490;-70
2022/03/11 07:51:15;;;;;;;17.75;9.10;;;;;;;12.55;35.57;101496.75;5074801;28;20024;-70
2022/03/11 07:53:40;;;;;;;20.80;9.48;;;;;;;12.37;35.09;101489.34;5074781;28;20059;-73
2022/03/11 07:56:07;;;;;;;16.15;9.75;;;;;;;12.37;35.86;101504.88;5092741;28;20024;-70
2022/03/11 07:58:33;;;;;;;15.25;9.50;;;;;;;13.27;34.50;101498.47;5075447;28;20449;-68
2022/03/11 08:00:59;;;;;;;16.30;9.60;;;;;;;12.94;34.72;101491.16;5076954;28;20372;-69
2022/03/11 08:03:24;;;;;;;17.73;9.80;;;;;;;12.64;35.07;101487.88;5094500;28;20058;-69
2022/03/11 08:05:49;;;;;;;17.90;9.98;;;;;;;12.70;35.11;101481.94;5094267;28;20026;-68
2022/03/11 08:08:15;;;;;;;16.83;9.70;;;;;;;11.90;36.05;101482.75;5093612;28;20022;-68
2022/03/11 08:10:41;;;;;;;16.80;9.85;;;;;;;13.59;33.21;101481.53;5075414;28;20044;-70
2022/03/11 08:13:07;;;;;;;16.63;12.05;;;;;;;13.20;34.08;101477.59;5093722;28;20471;-70
2022/03/11 08:15:33;;;;;;;21.02;10.20;;;;;;;14.38;32.56;101477.75;5092182;28;20028;-70
2022/03/11 08:17:59;;;;;;;15.55;9.82;;;;;;;14.32;32.19;101466.31;5093509;28;20090;-68
2022/03/11 08:20:24;;;;;;;14.65;9.68;;;;;;;13.79;32.95;101462.69;5093629;28;20020;-68
2022/03/11 08:22:50;;;;;;;14.77;9.85;;;;;;;14.55;31.67;101465.22;5095462;28;20424;-68
2022/03/11 08:25:16;;;;;;;14.25;9.52;;;;;;;15.31;30.22;101468.31;5077242;28;20028;-68
2022/03/11 08:27:42;;;;;;;16.92;12.43;;;;;;;14.95;30.78;101473.91;5077232;28;20115;-68
2022/03/11 08:30:10;;;;;;;16.30;9.98;;;;;;;16.54;29.06;101461.53;5093515;28;20169;-69
2022/03/11 08:32:37;;;;;;;14.73;9.68;;;;;;;15.63;30.23;101472.91;5093161;28;20024;-69
2022/03/11 08:35:03;;;;;;;20.23;9.88;;;;;;;14.54;31.28;101466.22;5093210;28;20030;-70
2022/03/11 08:37:29;;;;;;;15.07;9.88;;;;;;;15.90;29.65;101464.03;5093294;28;20111;-69
2022/03/11 08:39:54;;;;;;;17.20;9.90;;;;;;;16.24;29.39;101452.47;5075262;28;20081;-69
2022/03/11 08:42:20;;;;;;;15.30;9.50;;;;;;;15.43;30.17;101452.09;5075304;28;20028;-69
2022/03/11 08:44:46;;;;;;;18.30;9.73;;;;;;;15.94;29.30;101446.16;5094454;28;20039;-68
2022/03/11 08:47:12;;;;;;;14.98;9.52;;;;;;;16.41;28.79;101450.16;5094965;28;20063;-69
2022/03/11 08:49:38;;;;;;;14.30;9.80;;;;;;;16.31;28.65;101434.16;5076578;28;20044;-70
2022/03/11 08:52:04;;;;;;;19.15;10.13;;;;;;;16.44;29.16;101436.72;5094446;28;20440;-70
2022/03/11 08:54:30;;;;;;;13.90;9.32;;;;;;;17.35;27.95;101442.50;5076543;28;20020;-70
2022/03/11 08:56:55;;;;;;;17.67;9.63;;;;;;;16.56;28.32;101439.44;5076679;28;20054;-71
2022/03/11 08:59:21;;;;;;;14.10;9.63;;;;;;;16.22;28.98;101417.16;5094675;28;20027;-70
2022/03/11 09:01:47;;;;;;;16.08;9.93;;;;;;;16.47;28.86;101433.69;5076445;28;20111;-70
2022/03/11 09:04:13;;;;;;;14.50;10.00;;;;;;;16.35;29.27;101432.75;5094893;28;20016;-69
2022/03/11 09:06:39;;;;;;;15.75;9.60;;;;;;;16.25;28.80;101448.03;5094610;28;20032;-72
2022/03/11 09:09:04;;;;;;;18.17;10.00;;;;;;;18.00;26.85;101434.97;5076424;28;20024;-72
2022/03/11 09:11:31;;;;;;;14.93;10.00;;;;;;;16.84;28.70;101430.47;5094453;28;20091;-70
2022/03/11 09:13:57;;;;;;;15.82;10.25;;;;;;;18.44;26.45;101425.13;5059440;28;20024;-70
2022/03/11 09:16:22;;;;;;;17.23;10.15;;;;;;;17.85;27.29;101421.47;5094546;28;20077;-69
2022/03/11 09:18:48;;;;;;;18.60;10.10;;;;;;;19.19;25.31;101422.97;5094383;28;20024;-69
2022/03/11 09:21:13;;;;;;;15.00;9.80;;;;;;;18.55;26.42;101415.69;5094194;28;20020;-71
2022/03/11 09:23:39;;;;;;;14.20;9.65;;;;;;;18.31;26.20;101427.94;5094249;28;20035;-71
2022/03/11 09:26:04;;;;;;;15.45;10.50;;;;;;;19.31;24.92;101429.03;5076071;28;20165;-70
2022/03/11 09:28:31;;;;;;;18.45;9.93;;;;;;;20.03;24.84;101428.66;5094231;28;20035;-70
2022/03/11 09:30:57;;;;;;;15.20;9.90;;;;;;;17.64;27.40;101429.75;5094071;28;20020;-69
2022/03/11 09:33:22;;;;;;;14.27;9.65;;;;;;;19.09;26.10;101428.78;5094023;28;20035;-70
2022/03/11 09:35:48;;;;;;;15.27;9.70;;;;;;;19.01;26.08;101422.06;5075860;28;20024;-70
2022/03/11 09:38:13;;;;;;;20.25;9.95;;;;;;;19.44;25.08;101435.84;5093910;28;20027;-70
2022/03/11 09:40:42;;;;;;;19.17;10.30;;;;;;;18.47;26.62;101422.06;5093934;28;20083;-69
2022/03/11 09:43:09;;;;;;;14.77;9.82;;;;;;;18.13;27.10;101417.53;5075689;28;20048;-69
2022/03/11 09:45:34;;;;;;;18.38;10.45;;;;;;;19.41;25.32;101396.97;5093814;28;20155;-69
2022/03/11 09:48:00;;;;;;;18.92;10.52;;;;;;;18.37;26.36;101427.03;5093368;28;20363;-69
2022/03/11 09:50:26;;;;;;;17.02;10.35;;;;;;;18.04;27.06;101383.03;5092238;28;20059;-69
2022/03/11 09:52:55;;;;;;;13.77;9.85;;;;;;;18.06;27.35;101377.56;5094301;28;20024;-69
2022/03/11 09:55:24;;;;;;;19.13;10.65;;;;;;;19.00;25.76;101389.03;5076548;28;20149;-68
2022/03/11 09:57:55;;;;;;;17.27;10.70;;;;;;;18.37;26.74;101389.63;5076036;28;20056;-68
2022/03/11 10:00:20;;;;;;;20.95;10.80;;;;;;;19.48;25.68;101379.28;5076276;28;20031;-70
2022/03/11 10:02:46;;;;;;;15.85;10.52;;;;;;;19.64;25.23;101377.78;5092961;28;20024;-69
2022/03/11 10:05:14;;;;;;;14.65;10.15;;;;;;;17.79;28.31;101376.09;5093480;28;20106;-70
2022/03/11 10:07:39;;;;;;;23.17;10.50;;;;;;;18.97;26.89;101373.00;5093528;28;20024;-69
2022/03/11 10:10:19;;;;;;;14.52;10.38;;;;;;;18.20;27.76;101369.31;5092131;28;20093;-70
2022/03/11 10:12:46;;;;;;;19.20;10.40;;;;;;;18.27;27.85;101387.56;5075138;28;20061;-69
2022/03/11 10:15:14;;;;;;;21.33;10.43;;;;;;;17.06;29.37;101382.09;5075132;28;20073;-70
2022/03/11 10:17:44;;;;;;;20.75;10.93;;;;;;;14.68;33.63;101368.22;5093235;28;20078;-69
2022/03/11 10:20:14;;;;;;;20.02;11.10;;;;;;;15.02;33.26;101355.00;5075024;28;20615;-70
2022/03/11 10:22:46;;;;;;;21.92;10.55;;;;;;;15.07;33.57;101343.97;5092326;28;20131;-70
2022/03/11 10:25:16;;;;;;;18.17;10.73;;;;;;;14.28;35.08;101337.72;5093734;28;20506;-70
2022/03/11 10:28:08;;;;;;;22.25;12.25;;;;;;;15.64;33.67;101349.44;5092246;28;20119;-69
2022/03/11 10:30:38;;;;;;;19.95;11.07;;;;;;;14.58;34.74;101345.97;5093592;28;20028;-69
2022/03/11 10:33:10;;;;;;;19.55;11.30;;;;;;;14.50;35.31;101335.78;5075370;28;20020;-69
2022/03/11 10:35:38;;;;;;;18.83;10.73;;;;;;;15.16;33.86;101327.13;5074520;28;20494;-69
2022/03/11 10:38:09;;;;;;;16.65;10.88;;;;;;;14.78;34.57;101326.97;5092379;28;20024;-70
2022/03/11 10:40:40;;;;;;;19.95;11.05;;;;;;;14.68;35.36;101350.00;5075426;28;20034;-69
2022/03/11 10:43:12;;;;;;;21.70;11.88;;;;;;;14.50;35.31;101327.16;5074792;28;20062;-69
2022/03/11 10:45:51;;;;;;;23.02;11.30;;;;;;;13.96;36.29;101329.66;5093074;28;20467;-69
2022/03/11 10:48:19;;;;;;;22.27;12.00;;;;;;;13.87;36.04;101330.84;5092852;28;20084;-73
2022/03/11 10:50:44;;;;;;;16.77;11.02;;;;;;;13.79;36.69;101330.22;5093255;28;20052;-70
2022/03/11 10:53:12;;;;;;;21.48;11.60;;;;;;;13.92;36.46;101330.25;5091438;28;20138;-72
2022/03/11 10:55:40;;;;;;;20.15;12.18;;;;;;;13.88;36.92;101316.03;5073100;28;20131;-69
2022/03/11 10:58:07;;;;;;;21.98;11.80;;;;;;;13.95;37.36;101296.06;5073394;28;20516;-68
2022/03/11 11:00:42;;;;;;;20.20;12.02;;;;;;;14.66;35.61;101282.56;5072448;28;20391;-70
2022/03/11 11:03:09;;;;;;;23.77;12.55;;;;;;;13.97;36.96;101322.66;5072369;28;20031;-68
2022/03/11 11:05:36;;;;;;;18.02;11.32;;;;;;;14.36;36.28;101308.16;5091213;28;20390;-70
2022/03/11 11:08:04;;;;;;;20.83;12.23;;;;;;;13.94;36.67;101276.28;5091863;28;20028;-68
2022/03/11 11:10:32;;;;;;;28.38;11.93;;;;;;;14.38;36.16;101293.94;5074516;28;20028;-66
2022/03/11 11:13:00;;;;;;;24.50;12.02;;;;;;;14.19;37.04;101313.72;5092733;28;20046;-68
2022/03/11 11:15:25;;;;;;;22.27;12.25;;;;;;;14.25;37.31;101312.13;5095407;28;20067;-68
2022/03/11 11:17:52;;;;;;;21.13;11.73;;;;;;;14.55;36.65;101280.56;5094357;28;20019;-70